createdAt,value
2022-12-05T00:02:18.323Z,20.92
2022-12-05T00:05:11.806Z,20.75
2022-12-05T00:08:03.268Z,21.10
2022-12-05T00:10:55.882Z,20.77
2022-12-05T00:13:48.233Z,19.82
2022-12-05T00:16:42.339Z,21.42
2022-12-05T00:19:33.908Z,21.70
2022-12-05T00:22:26.984Z,22.25
2022-12-05T00:25:18.343Z,20.92
2022-12-05T00:28:09.801Z,21.60
2022-12-05T00:31:04.727Z,21.65
2022-12-05T00:33:57.224Z,20.55
2022-12-05T00:36:51.111Z,21.10
2022-12-05T00:39:42.652Z,20.75
2022-12-05T00:45:17.388Z,21.52
2022-12-05T00:48:09.345Z,20.48
2022-12-05T00:51:05.559Z,21.15
2022-12-05T00:53:58.711Z,20.37
2022-12-05T00:56:51.699Z,21.23
2022-12-05T00:59:43.201Z,20.95
2022-12-05T01:02:34.715Z,21.42
2022-12-05T01:05:26.376Z,22.58
2022-12-05T01:08:18.069Z,21.27
2022-12-05T01:11:10.961Z,22.93
2022-12-05T01:14:02.239Z,22.07
2022-12-05T01:16:55.268Z,22.77
2022-12-05T01:19:46.847Z,22.20
2022-12-05T01:22:38.614Z,23.47
2022-12-05T01:25:30.139Z,19.77
2022-12-05T01:28:22.179Z,21.27
2022-12-05T01:31:16.648Z,20.15
2022-12-05T01:34:10.911Z,20.25
2022-12-05T01:37:02.776Z,19.37
2022-12-05T01:39:54.430Z,19.57
2022-12-05T01:42:46.284Z,18.85
2022-12-05T01:45:42.576Z,19.45
2022-12-05T01:48:36.817Z,19.48
2022-12-05T01:51:28.840Z,18.75
2022-12-05T01:54:24.025Z,18.55
2022-12-05T01:57:16.927Z,18.55
2022-12-05T02:00:13.095Z,18.80
2022-12-05T02:03:08.467Z,18.02
2022-12-05T02:06:00.427Z,17.45
2022-12-05T02:08:52.734Z,19.02
2022-12-05T02:11:48.497Z,17.27
2022-12-05T02:17:26.275Z,18.30
2022-12-05T02:20:25.904Z,16.45
2022-12-05T02:23:30.870Z,16.80
2022-12-05T02:26:51.164Z,16.45
2022-12-05T02:30:11.060Z,15.90
2022-12-05T02:33:10.863Z,15.88
2022-12-05T02:36:05.313Z,16.70
2022-12-05T02:39:00.313Z,16.30
2022-12-05T02:41:54.887Z,16.05
2022-12-05T02:44:50.042Z,16.00
2022-12-05T02:47:44.801Z,16.55
2022-12-05T02:50:39.390Z,15.15
2022-12-05T02:53:32.802Z,16.42
2022-12-05T02:56:25.591Z,16.97
2022-12-05T02:59:22.827Z,15.90
2022-12-05T03:02:12.369Z,16.15
2022-12-05T03:05:08.318Z,16.05
2022-12-05T03:08:01.855Z,16.23
2022-12-05T03:10:55.362Z,15.45
2022-12-05T03:13:54.085Z,16.40
2022-12-05T03:16:49.038Z,15.38
2022-12-05T03:19:45.007Z,14.47
2022-12-05T03:22:39.297Z,15.45
2022-12-05T03:25:34.233Z,13.55
2022-12-05T03:28:31.626Z,13.38
2022-12-05T03:31:28.514Z,11.95
2022-12-05T03:34:23.119Z,12.20
2022-12-05T03:37:17.430Z,11.08
2022-12-05T03:40:13.407Z,11.10
2022-12-05T03:43:11.357Z,11.10
2022-12-05T03:46:07.534Z,10.28
2022-12-05T03:49:01.952Z,10.78
2022-12-05T03:54:39.401Z,9.15
2022-12-05T03:57:34.308Z,9.03
2022-12-05T04:00:27.752Z,9.85
2022-12-05T04:03:21.908Z,8.70
2022-12-05T04:06:18.510Z,8.75
2022-12-05T04:09:17.055Z,8.18
2022-12-05T04:12:09.447Z,7.22
2022-12-05T04:15:04.471Z,6.17
2022-12-05T04:17:58.712Z,5.62
2022-12-05T04:21:09.585Z,6.58
2022-12-05T04:24:20.254Z,6.10
2022-12-05T04:27:23.830Z,6.45
2022-12-05T04:30:18.739Z,6.47
2022-12-05T04:33:13.893Z,6.55
2022-12-05T04:36:09.470Z,6.60
2022-12-05T04:41:52.157Z,7.87
2022-12-05T04:44:47.523Z,8.00
2022-12-05T04:47:43.261Z,7.60
2022-12-05T04:50:42.033Z,8.38
2022-12-05T04:53:35.590Z,7.53
2022-12-05T04:59:19.507Z,7.55
2022-12-05T05:02:13.554Z,7.03
2022-12-05T05:05:13.776Z,8.23
2022-12-05T05:08:02.737Z,7.65
2022-12-05T05:11:00.609Z,6.70
2022-12-05T05:13:52.844Z,6.10
2022-12-05T05:16:45.749Z,5.90
2022-12-05T05:19:37.272Z,5.67
2022-12-05T05:22:28.918Z,5.72
2022-12-05T05:25:20.935Z,4.67
2022-12-05T05:28:12.440Z,5.05
2022-12-05T05:31:05.963Z,5.28
2022-12-05T05:33:58.696Z,5.17
2022-12-05T05:36:53.933Z,4.50
2022-12-05T05:39:46.910Z,4.70
2022-12-05T05:42:38.728Z,4.60
2022-12-05T05:45:30.210Z,4.20
2022-12-05T05:48:21.374Z,4.20
2022-12-05T05:51:14.184Z,3.80
2022-12-05T05:54:05.892Z,3.47
2022-12-05T05:56:57.599Z,3.25
2022-12-05T05:59:49.659Z,3.08
2022-12-05T06:02:41.479Z,2.98
2022-12-05T06:05:32.873Z,3.65
2022-12-05T06:11:12.022Z,2.40
2022-12-05T06:14:03.045Z,2.85
2022-12-05T06:16:54.450Z,2.50
2022-12-05T06:19:49.360Z,1.98
2022-12-05T06:22:40.919Z,2.05
2022-12-05T06:25:32.719Z,2.60
2022-12-05T06:28:26.682Z,2.20
2022-12-05T06:31:21.091Z,2.20
2022-12-05T06:34:12.810Z,2.40
2022-12-05T06:37:04.412Z,3.00
2022-12-05T06:39:56.090Z,2.20
2022-12-05T06:42:47.943Z,2.15
2022-12-05T06:45:41.308Z,2.42
2022-12-05T06:48:33.081Z,3.05
2022-12-05T06:51:44.991Z,2.67
2022-12-05T06:54:43.265Z,2.98
2022-12-05T06:57:35.017Z,2.77
2022-12-05T07:00:44.521Z,2.60
2022-12-05T07:03:44.476Z,2.87
2022-12-05T07:06:36.815Z,3.40
2022-12-05T07:09:51.788Z,3.40
2022-12-05T07:12:43.149Z,3.58
2022-12-05T07:15:35.052Z,3.50
2022-12-05T07:18:26.538Z,4.78
2022-12-05T07:21:19.170Z,5.15
2022-12-05T07:24:10.700Z,5.30
2022-12-05T07:27:02.146Z,5.33
2022-12-05T07:29:53.925Z,5.53
2022-12-05T07:32:45.597Z,5.10
2022-12-05T07:35:40.393Z,5.67
2022-12-05T07:38:32.169Z,5.28
2022-12-05T07:41:29.706Z,5.70
2022-12-05T07:44:29.271Z,6.05
2022-12-05T07:47:20.729Z,5.70
2022-12-05T07:50:18.870Z,6.05
2022-12-05T07:53:10.362Z,4.25
2022-12-05T07:56:24.024Z,4.40
2022-12-05T07:59:23.513Z,4.08
2022-12-05T08:02:25.211Z,5.33
2022-12-05T08:05:17.351Z,4.35
2022-12-05T08:10:48.657Z,4.42
2022-12-05T08:13:53.754Z,5.08
2022-12-05T08:16:52.532Z,6.00
2022-12-05T08:22:27.634Z,5.62
2022-12-05T08:25:19.345Z,6.25
2022-12-05T08:28:11.891Z,6.78
2022-12-05T08:31:09.449Z,8.40
2022-12-05T08:34:14.420Z,9.95
2022-12-05T08:37:19.162Z,10.20
2022-12-05T08:40:12.699Z,9.70
2022-12-05T08:43:05.074Z,7.47
2022-12-05T08:45:57.174Z,7.85
2022-12-05T08:48:49.001Z,9.35
2022-12-05T08:51:41.566Z,8.83
2022-12-05T08:54:33.512Z,8.95
2022-12-05T08:57:25.180Z,7.03
2022-12-05T09:00:18.927Z,7.65
2022-12-05T09:03:12.574Z,8.20
2022-12-05T09:06:11.472Z,7.35
2022-12-05T09:09:05.754Z,7.92
2022-12-05T09:11:58.818Z,7.35
2022-12-05T09:14:51.771Z,7.00
2022-12-05T09:17:43.264Z,6.83
2022-12-05T09:20:50.963Z,7.35
2022-12-05T09:23:51.105Z,6.42
2022-12-05T09:26:46.508Z,5.37
2022-12-05T09:29:38.604Z,5.30
2022-12-05T09:32:30.457Z,5.83
2022-12-05T09:35:22.029Z,5.72
2022-12-05T09:38:13.992Z,5.58
2022-12-05T09:41:13.268Z,5.97
2022-12-05T09:44:08.070Z,6.35
2022-12-05T09:47:09.174Z,8.30
2022-12-05T09:52:47.299Z,8.93
2022-12-05T09:55:51.023Z,8.03
2022-12-05T09:58:45.941Z,8.20
2022-12-05T10:01:42.013Z,9.28
2022-12-05T10:04:46.213Z,9.08
2022-12-05T10:07:47.810Z,9.55
2022-12-05T10:13:34.977Z,11.63
2022-12-05T10:16:29.509Z,10.50
2022-12-05T10:19:24.810Z,11.55
2022-12-05T10:22:22.508Z,11.80
2022-12-05T10:25:17.171Z,11.63
2022-12-05T10:28:13.807Z,10.68
2022-12-05T10:31:09.196Z,11.45
2022-12-05T10:34:09.985Z,11.10
2022-12-05T10:37:04.621Z,11.88
2022-12-05T10:42:38.048Z,10.25
2022-12-05T10:45:29.594Z,9.65
2022-12-05T10:48:23.061Z,9.25
2022-12-05T10:51:18.033Z,9.60
2022-12-05T10:54:19.112Z,10.13
2022-12-05T10:57:23.085Z,9.78
2022-12-05T11:00:18.407Z,9.70
2022-12-05T11:03:19.638Z,10.23
2022-12-05T11:06:21.426Z,9.80
2022-12-05T11:09:19.934Z,9.43
2022-12-05T11:12:21.080Z,9.20
2022-12-05T11:15:24.504Z,9.90
2022-12-05T11:18:28.645Z,8.68
2022-12-05T11:21:21.039Z,9.78
2022-12-05T11:24:25.529Z,9.58
2022-12-05T11:27:30.760Z,9.10
2022-12-05T11:30:31.518Z,9.05
2022-12-05T11:33:25.765Z,9.38
2022-12-05T11:36:21.067Z,7.35
2022-12-05T11:39:15.246Z,7.35
2022-12-05T11:45:25.354Z,9.20
2022-12-05T11:48:37.452Z,8.35
2022-12-05T11:51:40.079Z,7.90
2022-12-05T11:58:15.255Z,9.45
2022-12-05T12:01:11.988Z,9.58
2022-12-05T12:04:39.311Z,10.32
2022-12-05T12:07:50.122Z,10.00
2022-12-05T12:10:44.790Z,9.60
2022-12-05T12:13:53.344Z,9.00
2022-12-05T12:19:49.972Z,8.08
2022-12-05T12:22:59.073Z,7.42
2022-12-05T12:25:54.658Z,6.28
2022-12-05T12:28:49.877Z,5.97
2022-12-05T12:31:50.316Z,7.12
2022-12-05T12:35:17.358Z,8.50
2022-12-05T12:38:21.292Z,9.13
2022-12-05T12:41:16.257Z,8.53
2022-12-05T12:44:14.535Z,8.95
2022-12-05T12:49:53.184Z,10.63
2022-12-05T12:53:07.151Z,10.32
2022-12-05T12:56:03.112Z,10.68
2022-12-05T12:58:58.200Z,11.10
2022-12-05T13:01:53.672Z,11.00
2022-12-05T13:04:50.854Z,10.72
2022-12-05T13:07:45.961Z,10.68
2022-12-05T13:10:41.462Z,10.00
2022-12-05T13:13:36.788Z,10.18
2022-12-05T13:16:33.358Z,9.88
2022-12-05T13:19:30.655Z,9.48
2022-12-05T13:22:25.252Z,9.50
2022-12-05T13:25:18.666Z,9.13
2022-12-05T13:28:13.722Z,9.60
2022-12-05T13:31:06.667Z,10.43
2022-12-05T13:33:58.048Z,9.98
2022-12-05T13:37:06.933Z,10.65
2022-12-05T13:40:17.505Z,9.78
2022-12-05T13:43:10.459Z,9.70
2022-12-05T13:46:06.464Z,9.53
2022-12-05T13:51:44.082Z,9.98
2022-12-05T13:54:36.939Z,9.58
2022-12-05T13:57:53.525Z,9.63
2022-12-05T14:00:46.149Z,9.85
2022-12-05T14:07:01.899Z,10.00
2022-12-05T14:09:55.790Z,10.28
2022-12-05T14:12:54.157Z,10.15
2022-12-05T14:19:08.219Z,9.48
2022-12-05T14:22:07.505Z,9.68
2022-12-05T14:25:03.611Z,9.43
2022-12-05T14:27:58.589Z,9.73
2022-12-05T14:30:59.201Z,9.28
2022-12-05T14:34:05.953Z,9.38
2022-12-05T14:37:04.409Z,9.13
2022-12-05T14:39:58.089Z,9.20
2022-12-05T14:42:58.047Z,9.23
2022-12-05T14:45:58.167Z,8.73
2022-12-05T14:48:51.018Z,9.00
2022-12-05T14:54:45.125Z,8.68
2022-12-05T15:00:24.012Z,8.50
2022-12-05T15:06:05.466Z,10.82
2022-12-05T15:09:28.439Z,9.85
2022-12-05T15:11:53.958Z,9.85
2022-12-05T15:14:55.125Z,9.05
2022-12-05T15:17:53.862Z,9.20
2022-12-05T15:23:47.887Z,9.75
2022-12-05T15:26:47.448Z,9.05
2022-12-05T15:29:36.527Z,8.53
2022-12-05T15:32:30.072Z,10.10
2022-12-05T15:38:46.075Z,9.85
2022-12-05T15:41:39.144Z,10.23
2022-12-05T15:44:38.052Z,9.18
2022-12-05T15:47:28.305Z,9.60
2022-12-05T15:50:24.701Z,10.55
2022-12-05T15:56:01.578Z,9.98
2022-12-05T15:58:56.386Z,10.13
2022-12-05T16:01:52.790Z,10.43
2022-12-05T16:04:49.667Z,9.30
2022-12-05T16:07:41.403Z,9.65
2022-12-05T16:10:34.407Z,10.90
2022-12-05T16:13:28.397Z,9.40
2022-12-05T16:16:23.299Z,11.10
2022-12-05T16:19:19.492Z,10.40
2022-12-05T16:22:18.036Z,10.82
2022-12-05T16:25:18.225Z,10.08
2022-12-05T16:28:19.783Z,10.40
2022-12-05T16:31:18.194Z,10.58
2022-12-05T16:34:16.327Z,10.80
2022-12-05T16:37:08.468Z,10.68
2022-12-05T16:40:00.588Z,9.63
2022-12-05T16:43:06.261Z,10.93
2022-12-05T16:45:59.836Z,10.25
2022-12-05T16:48:55.952Z,11.08
2022-12-05T16:51:49.983Z,11.20
2022-12-05T16:54:43.474Z,10.08
2022-12-05T16:57:34.646Z,10.08
2022-12-05T17:00:27.147Z,10.03
2022-12-05T17:03:33.888Z,9.85
2022-12-05T17:06:15.265Z,9.93
2022-12-05T17:09:06.914Z,10.48
2022-12-05T17:12:01.309Z,9.68
2022-12-05T17:14:56.349Z,10.05
2022-12-05T17:17:47.943Z,10.25
2022-12-05T17:20:43.386Z,10.65
2022-12-05T17:26:21.607Z,10.50
2022-12-05T17:29:13.637Z,10.90
2022-12-05T17:32:04.714Z,10.72
2022-12-05T17:34:56.684Z,10.40
2022-12-05T17:37:50.157Z,9.93
2022-12-05T17:40:43.679Z,10.82
2022-12-05T17:43:35.304Z,9.50
2022-12-05T17:46:26.817Z,10.25
2022-12-05T17:49:20.401Z,10.25
2022-12-05T17:52:27.161Z,10.58
2022-12-05T17:55:04.773Z,11.00
2022-12-05T17:57:56.904Z,11.20
2022-12-05T18:00:49.013Z,10.88
2022-12-05T18:03:40.148Z,11.57
2022-12-05T18:06:33.857Z,10.85
2022-12-05T18:09:25.162Z,11.85
2022-12-05T18:12:16.709Z,11.30
2022-12-05T18:15:13.309Z,10.75
2022-12-05T18:18:07.002Z,11.40
2022-12-05T18:21:06.082Z,12.60
2022-12-05T18:23:57.727Z,11.12
2022-12-05T18:26:49.640Z,12.45
2022-12-05T18:29:41.274Z,12.20
2022-12-05T18:32:32.700Z,12.18
2022-12-05T18:35:25.398Z,13.15
2022-12-05T18:38:16.710Z,12.58
2022-12-05T18:41:15.118Z,12.33
2022-12-05T18:44:08.558Z,11.18
2022-12-05T18:47:00.330Z,12.18
2022-12-05T18:49:51.832Z,12.47
2022-12-05T18:52:44.597Z,12.80
2022-12-05T18:55:58.391Z,13.40
2022-12-05T18:58:31.606Z,11.88
2022-12-05T19:01:23.917Z,11.93
2022-12-05T19:04:18.133Z,12.40
2022-12-05T19:10:03.007Z,12.70
2022-12-05T19:12:54.407Z,11.68
2022-12-05T19:15:46.074Z,12.35
2022-12-05T19:18:37.641Z,13.08
2022-12-05T19:21:30.960Z,12.85
2022-12-05T19:24:22.787Z,12.55
2022-12-05T19:27:15.589Z,12.30
2022-12-05T19:30:11.128Z,12.58
2022-12-05T19:33:02.741Z,13.00
2022-12-05T19:35:56.244Z,12.65
2022-12-05T19:38:50.123Z,12.45
2022-12-05T19:41:44.577Z,12.67
2022-12-05T19:44:36.049Z,13.00
2022-12-05T19:47:28.223Z,12.65
2022-12-05T19:50:20.138Z,11.97
2022-12-05T19:53:12.533Z,12.68
2022-12-05T19:56:05.562Z,12.60
2022-12-05T19:58:59.909Z,12.85
2022-12-05T20:01:51.777Z,12.15
2022-12-05T20:04:44.008Z,13.20
2022-12-05T20:07:35.783Z,12.25
2022-12-05T20:10:27.484Z,12.63
2022-12-05T20:13:45.211Z,13.05
2022-12-05T20:16:15.969Z,12.35
2022-12-05T20:19:08.960Z,13.20
2022-12-05T20:22:03.332Z,13.50
2022-12-05T20:24:54.872Z,13.25
2022-12-05T20:27:46.950Z,12.82
2022-12-05T20:30:38.654Z,13.40
2022-12-05T20:33:31.436Z,13.15
2022-12-05T20:36:24.636Z,13.10
2022-12-05T20:39:18.943Z,13.60
2022-12-05T20:42:11.019Z,13.83
2022-12-05T20:45:02.694Z,13.78
2022-12-05T20:47:54.548Z,13.62
2022-12-05T20:50:47.705Z,12.88
2022-12-05T20:53:41.262Z,14.13
2022-12-05T20:56:34.628Z,12.98
2022-12-05T20:59:26.112Z,13.20
2022-12-05T21:02:18.133Z,13.90
2022-12-05T21:05:12.604Z,12.98
2022-12-05T21:08:04.615Z,13.53
2022-12-05T21:10:56.128Z,13.83
2022-12-05T21:13:47.183Z,13.95
2022-12-05T21:16:38.713Z,13.58
2022-12-05T21:19:30.333Z,14.07
2022-12-05T21:22:21.803Z,13.32
2022-12-05T21:25:13.312Z,13.93
2022-12-05T21:28:05.524Z,13.70
2022-12-05T21:30:57.015Z,14.47
2022-12-05T21:33:52.042Z,14.07
2022-12-05T21:36:46.553Z,13.58
2022-12-05T21:39:37.881Z,14.10
2022-12-05T21:42:29.461Z,14.18
2022-12-05T21:45:20.833Z,14.18
2022-12-05T21:48:12.132Z,14.83
2022-12-05T21:51:05.578Z,13.98
2022-12-05T21:53:57.128Z,15.32
2022-12-05T21:56:48.430Z,14.38
2022-12-05T21:59:39.957Z,14.93
2022-12-05T22:02:31.717Z,13.98
2022-12-05T22:05:23.266Z,14.65
2022-12-05T22:08:14.692Z,15.40
2022-12-05T22:11:08.915Z,14.13
2022-12-05T22:14:00.596Z,14.70
2022-12-05T22:16:53.682Z,15.23
2022-12-05T22:22:24.807Z,15.50
2022-12-05T22:25:17.149Z,14.43
2022-12-05T22:28:08.797Z,14.47
2022-12-05T22:31:03.091Z,15.35
2022-12-05T22:33:54.901Z,14.33
2022-12-05T22:36:46.295Z,15.18
2022-12-05T22:39:37.929Z,13.85
2022-12-05T22:42:29.715Z,13.70
2022-12-05T22:45:21.204Z,14.58
2022-12-05T22:48:12.733Z,14.93
2022-12-05T22:51:07.299Z,15.15
2022-12-05T22:53:58.869Z,15.68
2022-12-05T22:56:50.737Z,15.53
2022-12-05T22:59:42.167Z,15.48
2022-12-05T23:02:33.997Z,14.85
2022-12-05T23:05:27.826Z,15.43
2022-12-05T23:08:19.483Z,15.28
2022-12-05T23:11:12.721Z,14.63
2022-12-05T23:14:05.911Z,15.00
2022-12-05T23:16:57.562Z,15.63
2022-12-05T23:19:49.251Z,14.47
2022-12-05T23:22:40.755Z,15.48
2022-12-05T23:25:32.333Z,15.60
2022-12-05T23:28:24.133Z,15.40
2022-12-05T23:31:16.411Z,14.90
2022-12-05T23:34:08.405Z,14.78
2022-12-05T23:37:00.546Z,15.50
2022-12-05T23:39:52.377Z,15.32
2022-12-05T23:42:43.922Z,14.85
2022-12-05T23:45:36.345Z,15.48
2022-12-05T23:48:28.426Z,16.15
2022-12-05T23:51:22.915Z,15.23
2022-12-05T23:54:14.851Z,16.23
2022-12-05T23:57:06.448Z,15.72
2022-12-05T23:59:58.265Z,15.65
